Eustis, FL (32726)

4:21 PM EDT on September 01, 2015 (GMT -0400)
Loch Leven | | Change Station
CLOSE
Current Station
Personal Weather Station
Location: Mount Dora, FL
Elevation: 174 ft
Nearby Weather Stations

Elev 174 ft 28.84 °N, 81.63 °W | Updated 8 minutes ago

Overcast
Overcast
83.7 °F
Feels Like 92 °F
N
4.2
Wind Variable Wind from SSW

Today
High -- | Low -- °F
--% Chance of Precip.
Yesterday
High -- | Low -- °F
Precip. -- in
7:04 AM 7:48 PM
Waning Gibbous, 86% visible
Pressure 30.07 in
Visibility 3.0 miles
Clouds Scattered Clouds 4000 ft
Mostly Cloudy 6000 ft
Overcast 9000 ft
Heat Index 92 °F
Dew Point 75 °F
Humidity 76%
Rainfall 0.01 in
Snow Depth Not available.
UV 3 out of 12
Pollen 7.30 out of 12
Air Quality Not available.
Flu Activity Not available.
SPECI KLEE 012006Z 19004KT 3SM -RA BR SCT040 BKN060 OVC090 26/24 A3007 RMK AO2 RAB1954 TSE00 P0003 T02560239
Pressure 30.07 in
Visibility 3.0 miles
Clouds Scattered Clouds 4000 ft
Mostly Cloudy 6000 ft
Overcast 9000 ft
Heat Index 92 °F
Dew Point 75 °F
Humidity 76%
Rainfall 0.01 in
Snow Depth Not available.
UV 3 out of 12
Pollen 7.30 out of 12
Air Quality Not available.
Flu Activity Not available.
SPECI KLEE 012006Z 19004KT 3SM -RA BR SCT040 BKN060 OVC090 26/24 A3007 RMK AO2 RAB1954 TSE00 P0003 T02560239
Nowcast | as of 3:57 PM EDT on September 1, 2015

Scattered storms across Lake County will continue to develop eastward toward western Orange...northwest Osceola...Seminole and inland Volusia County into late afternoon. Gusty winds to 35 mph...cloud to ground lightning strikes and rainfall amounts from one to two inches may accompany stronger storms. Additional isolated storms will develop along the East Coast sea breeze pushing inland from the Treasure Coast into eastern Osceola and eastern Okeechobee counties into late afternoon. Coverage of storms across southern areas is expected to be less due to drying in the mid to upper levels of the atmosphere. Additional details...including graphics are available online at: http://www.Srh.NOAA.Gov/mlb/blog.Php

×

10-Day Weather Forecast

×

Almanac

Astronomy

Sep. 01, 2015 Rise Set
Actual Time
Civil Twilight
Nautical Twilight
Astronomical Twilight
Moon
Length of Visible Light
Length of Day
Tomorrow will be .
, % of the Moon is Illuminated

Today's Extremes

State Highs State Lows

Community

WunderPhotos

Upload Photos

1,851,605 photos uploaded!

WunderBlogs® & News

Nearby

Air Quality

  Air Quality AQ Index Pollutant
Not available.

Snow Depth

Station Depth Elevation

Earthquake Activity

City Distance Mag. Time & Date
Minimum magnitude displayed is 2.5.

Coastal Water Temperatures

Place Temperature

Stations

Nearby Weather Stations

Station Location Temp. Windchill Dew Point Humidity Wind Precip. Elev Updated Type